Time;durP1;ratioP1;P1;durP2;ratioP2;P2;SDS_P1;SDS_P2;PMS_P1;PMS_P2;Temp;Humidity;BMP_temperature;BMP_pressure;BME280_temperature;BME280_humidity;BME280_pressure;Samples;Min_cycle;Max_cycle;Signal;HPM_P1;HPM_P2
2022/04/08 00:02:13;;;;;;;2.50;0.80;;;;;;;3.27;90.42;98292.50;4970828;28;20186;-44
2022/04/08 00:04:50;;;;;;;1.52;0.70;;;;;;;3.15;90.25;98298.41;4971855;28;20231;-43
2022/04/08 00:07:16;;;;;;;4.47;0.80;;;;;;;3.16;90.68;98307.22;4972666;28;20844;-43
2022/04/08 00:09:41;;;;;;;4.22;0.88;;;;;;;3.25;90.47;98317.34;4972296;28;20182;-43
2022/04/08 00:12:09;;;;;;;5.97;1.30;;;;;;;3.36;90.73;98317.66;4972702;28;20181;-43
2022/04/08 00:14:34;;;;;;;2.03;0.85;;;;;;;3.27;90.80;98318.97;4972442;28;20174;-44
2022/04/08 00:17:01;;;;;;;4.85;1.38;;;;;;;3.33;90.92;98328.41;4972573;28;20715;-41
2022/04/08 00:19:27;;;;;;;2.85;1.33;;;;;;;3.35;90.66;98337.13;4971574;28;20201;-42
2022/04/08 00:21:53;;;;;;;7.22;1.20;;;;;;;3.30;91.04;98329.41;4972457;28;20174;-44
2022/04/08 00:24:18;;;;;;;4.50;1.00;;;;;;;3.32;91.02;98341.72;4971858;28;20190;-43
2022/04/08 00:26:46;;;;;;;4.97;1.23;;;;;;;3.36;91.43;98344.13;4972224;28;20197;-43
2022/04/08 00:29:13;;;;;;;4.05;1.40;;;;;;;3.37;91.89;98352.91;4972410;28;20550;-43
2022/04/08 00:31:38;;;;;;;5.05;1.10;;;;;;;3.33;91.80;98354.03;4970708;28;20193;-44
2022/04/08 00:34:04;;;;;;;4.93;1.17;;;;;;;3.34;92.02;98369.81;4970482;28;20181;-43
2022/04/08 00:36:30;;;;;;;4.50;1.00;;;;;;;3.35;92.41;98375.97;4987045;28;20562;-44
2022/04/08 00:38:55;;;;;;;5.05;1.38;;;;;;;3.33;92.43;98386.63;4970884;28;20174;-45
2022/04/08 00:41:20;;;;;;;4.70;1.38;;;;;;;3.35;92.48;98378.63;4972300;28;20255;-44
2022/04/08 00:43:46;;;;;;;9.35;1.40;;;;;;;3.36;92.55;98381.19;4972024;28;20260;-42
2022/04/08 00:46:11;;;;;;;8.48;1.42;;;;;;;3.43;92.18;98400.25;4971545;28;20599;-43
2022/04/08 00:48:37;;;;;;;3.17;1.30;;;;;;;3.42;92.11;98391.47;4971841;28;20352;-44
2022/04/08 00:51:04;;;;;;;4.13;1.42;;;;;;;3.44;92.32;98412.59;4971899;28;20253;-45
2022/04/08 00:53:30;;;;;;;4.38;1.10;;;;;;;3.56;92.13;98406.69;4972096;28;20177;-43
2022/04/08 00:55:56;;;;;;;6.85;1.58;;;;;;;3.64;91.47;98395.72;4971196;28;20190;-45
2022/04/08 00:58:23;;;;;;;11.48;1.50;;;;;;;3.67;91.16;98411.44;4972018;28;20193;-42
2022/04/08 01:00:49;;;;;;;7.47;1.70;;;;;;;3.71;90.67;98408.56;4970260;28;20190;-44
2022/04/08 01:03:14;;;;;;;5.40;1.30;;;;;;;3.63;90.98;98418.72;4971817;28;20692;-44
2022/04/08 01:05:39;;;;;;;4.15;1.00;;;;;;;3.60;91.22;98412.69;4971397;28;20173;-43
2022/04/08 01:08:09;;;;;;;7.95;1.20;;;;;;;3.56;91.17;98424.34;4971774;28;20178;-43
2022/04/08 01:10:35;;;;;;;12.05;1.73;;;;;;;3.61;90.78;98420.56;4971682;28;20797;-44
2022/04/08 01:13:00;;;;;;;8.02;1.15;;;;;;;3.55;90.58;98436.75;4971835;28;20160;-45
2022/04/08 01:15:25;;;;;;;4.65;1.35;;;;;;;3.60;90.48;98434.72;4970822;28;20209;-42
2022/04/08 01:17:51;;;;;;;9.60;1.30;;;;;;;3.67;90.05;98448.53;4970933;28;20216;-42
2022/04/08 01:20:17;;;;;;;8.90;1.50;;;;;;;3.71;90.08;98455.38;4971001;28;20194;-43
2022/04/08 01:22:43;;;;;;;6.55;1.63;;;;;;;3.80;90.36;98464.69;4970508;28;20237;-42
2022/04/08 01:25:10;;;;;;;4.97;1.17;;;;;;;3.82;90.80;98465.47;4971057;28;20209;-44
2022/04/08 01:27:36;;;;;;;5.40;1.20;;;;;;;3.76;90.77;98469.28;4969992;28;20252;-42
2022/04/08 01:30:04;;;;;;;7.78;1.73;;;;;;;3.72;91.52;98491.53;4971098;28;20190;-43
2022/04/08 01:32:29;;;;;;;8.98;1.65;;;;;;;3.79;91.92;98486.81;4971116;28;20170;-43
2022/04/08 01:34:55;;;;;;;6.22;1.38;;;;;;;3.80;91.90;98496.47;4971174;28;20221;-43
2022/04/08 01:37:20;;;;;;;8.02;1.50;;;;;;;3.80;92.40;98501.75;4971377;28;20197;-42
2022/04/08 01:39:46;;;;;;;5.80;1.65;;;;;;;3.72;92.56;98507.44;4966680;28;20169;-44
2022/04/08 01:42:11;;;;;;;7.57;1.80;;;;;;;3.66;92.57;98503.28;4953310;28;20209;-44
2022/04/08 01:44:38;;;;;;;7.00;1.58;;;;;;;3.71;92.49;98524.25;4967026;28;20194;-44
2022/04/08 01:47:04;;;;;;;4.93;1.42;;;;;;;3.75;92.06;98520.53;4968043;28;20240;-43
2022/04/08 01:49:30;;;;;;;14.57;1.63;;;;;;;3.80;91.88;98518.50;4969464;28;20642;-44
2022/04/08 01:51:55;;;;;;;15.50;1.95;;;;;;;3.77;91.66;98523.94;4970402;28;20185;-43
2022/04/08 01:54:21;;;;;;;10.30;2.25;;;;;;;3.85;90.97;98526.25;4970698;28;20171;-41
2022/04/08 01:56:46;;;;;;;13.38;1.88;;;;;;;3.76;90.87;98542.56;4970471;28;20313;-44
2022/04/08 01:59:12;;;;;;;8.88;1.67;;;;;;;3.85;90.07;98544.78;4971079;28;20488;-43
2022/04/08 02:01:37;;;;;;;8.35;1.50;;;;;;;3.95;89.24;98555.78;4970768;28;20178;-44
2022/04/08 02:04:04;;;;;;;12.93;1.88;;;;;;;3.86;89.03;98552.66;4970074;28;20221;-44
2022/04/08 02:06:30;;;;;;;12.15;2.13;;;;;;;3.82;88.28;98560.81;4970349;28;20189;-42
2022/04/08 02:08:57;;;;;;;8.82;2.10;;;;;;;3.81;88.21;98573.19;4970590;28;20638;-44
2022/04/08 02:11:23;;;;;;;6.47;1.77;;;;;;;3.81;88.48;98577.66;4970802;28;20173;-43
2022/04/08 02:13:48;;;;;;;12.13;2.65;;;;;;;3.76;88.23;98575.22;4969625;28;20192;-45
2022/04/08 02:16:14;;;;;;;7.38;1.83;;;;;;;3.89;86.46;98575.47;4970425;28;20194;-42
2022/04/08 02:18:39;;;;;;;11.43;2.60;;;;;;;3.86;86.10;98584.44;4970555;28;20209;-42
2022/04/08 02:21:05;;;;;;;15.43;2.28;;;;;;;3.87;86.13;98587.94;4970380;28;20168;-45
2022/04/08 02:23:32;;;;;;;9.77;2.25;;;;;;;3.89;85.15;98604.63;4970749;28;20213;-43
2022/04/08 02:25:57;;;;;;;16.45;2.60;;;;;;;3.89;85.30;98604.63;4969196;28;20229;-43
2022/04/08 02:28:23;;;;;;;9.35;2.00;;;;;;;3.89;85.42;98602.84;4972249;28;20298;-45
2022/04/08 02:30:48;;;;;;;14.85;2.13;;;;;;;3.90;84.76;98630.19;4973019;28;20181;-45
2022/04/08 02:33:14;;;;;;;11.00;2.22;;;;;;;3.90;83.58;98630.19;4973064;28;20241;-45
2022/04/08 02:35:39;;;;;;;13.13;2.72;;;;;;;3.91;82.83;98631.91;4974298;28;20177;-42
2022/04/08 02:38:05;;;;;;;7.82;2.40;;;;;;;3.86;81.77;98640.06;4974265;28;20178;-44
2022/04/08 02:40:30;;;;;;;16.55;2.45;;;;;;;3.84;81.25;98647.22;4974075;28;20260;-43
2022/04/08 02:42:56;;;;;;;19.20;2.67;;;;;;;3.86;81.80;98641.84;4974181;28;20563;-45
2022/04/08 02:45:21;;;;;;;14.55;2.55;;;;;;;3.74;80.64;98645.94;4972393;28;20225;-43
2022/04/08 02:47:46;;;;;;;19.60;2.92;;;;;;;3.70;80.11;98665.53;4974331;28;20741;-41
2022/04/08 02:50:12;;;;;;;15.02;2.42;;;;;;;3.75;79.39;98660.03;4972919;28;20183;-44
2022/04/08 02:52:38;;;;;;;16.38;2.60;;;;;;;3.73;78.80;98665.38;4973452;28;20166;-43
2022/04/08 02:55:05;;;;;;;19.13;2.83;;;;;;;3.68;78.36;98670.03;4973444;28;20190;-43
2022/04/08 02:57:31;;;;;;;13.75;2.15;;;;;;;3.68;77.65;98684.13;4973438;28;20194;-45
2022/04/08 02:59:58;;;;;;;16.83;2.67;;;;;;;3.70;75.83;98686.72;4972734;28;20193;-44
2022/04/08 03:02:23;;;;;;;15.57;3.03;;;;;;;3.66;76.02;98695.72;4973645;28;20610;-44
2022/04/08 03:04:49;;;;;;;10.13;2.42;;;;;;;3.60;76.08;98696.84;4973517;28;20382;-42
2022/04/08 03:07:14;;;;;;;9.45;2.55;;;;;;;3.67;74.89;98711.56;4973496;28;20202;-43
2022/04/08 03:09:39;;;;;;;12.90;2.67;;;;;;;3.60;75.98;98710.09;4972464;28;20309;-42
2022/04/08 03:12:05;;;;;;;14.75;2.72;;;;;;;3.57;74.94;98712.03;4973378;28;20622;-42
2022/04/08 03:14:34;;;;;;;13.75;2.88;;;;;;;3.49;75.04;98721.16;4973594;28;20174;-44
2022/04/08 03:16:59;;;;;;;16.85;2.67;;;;;;;3.50;75.34;98724.69;4973336;28;20190;-43
2022/04/08 03:19:25;;;;;;;12.45;2.47;;;;;;;3.50;75.08;98722.88;4973572;28;20285;-44
2022/04/08 03:21:50;;;;;;;19.08;2.85;;;;;;;3.46;75.22;98736.31;4973353;28;20173;-44
2022/04/08 03:24:16;;;;;;;19.80;2.38;;;;;;;3.39;75.47;98735.72;4971713;28;20276;-43
2022/04/08 03:26:42;;;;;;;18.05;2.72;;;;;;;3.41;74.56;98736.53;4973236;28;20210;-43
2022/04/08 03:29:08;;;;;;;12.70;2.33;;;;;;;3.47;75.22;98732.72;4972133;28;20170;-41
2022/04/08 03:31:33;;;;;;;12.52;2.40;;;;;;;3.38;73.99;98744.56;4972279;28;20166;-42
2022/04/08 03:33:59;;;;;;;17.20;2.85;;;;;;;3.28;74.02;98741.47;4972383;28;20170;-42
2022/04/08 03:36:24;;;;;;;15.00;2.63;;;;;;;3.38;73.97;98749.00;4972643;28;20673;-43
2022/04/08 03:38:49;;;;;;;9.43;2.05;;;;;;;3.41;74.45;98743.56;4973082;28;20185;-44
2022/04/08 03:41:15;;;;;;;16.80;2.95;;;;;;;3.26;75.44;98747.75;4964008;28;20583;-43
2022/04/08 03:43:41;;;;;;;12.55;2.17;;;;;;;3.21;74.72;98752.34;4970027;28;20237;-43
2022/04/08 03:46:07;;;;;;;15.82;2.45;;;;;;;3.26;74.25;98756.56;4972751;28;20622;-43
2022/04/08 03:48:32;;;;;;;11.73;1.90;;;;;;;3.20;73.34;98753.31;4962898;28;20178;-42
2022/04/08 03:50:57;;;;;;;14.65;3.10;;;;;;;3.23;73.55;98758.44;4970578;28;20267;-43
2022/04/08 03:53:23;;;;;;;11.75;2.55;;;;;;;3.28;73.08;98754.69;4972650;28;20186;-43
2022/04/08 03:55:48;;;;;;;8.93;2.00;;;;;;;3.16;74.03;98757.84;4962863;28;20672;-44
2022/04/08 03:58:14;;;;;;;11.38;2.00;;;;;;;3.20;73.56;98755.94;4959585;28;20456;-41
2022/04/08 04:00:39;;;;;;;13.18;2.63;;;;;;;3.19;73.81;98760.38;4972326;28;20182;-43
2022/04/08 04:03:05;;;;;;;11.75;3.45;;;;;;;3.15;73.74;98758.78;4972885;28;20663;-43
2022/04/08 04:05:34;;;;;;;17.20;3.00;;;;;;;3.10;74.15;98771.31;4972377;28;20174;-44
2022/04/08 04:08:00;;;;;;;15.57;2.67;;;;;;;3.12;73.97;98766.84;4972526;28;20627;-44
2022/04/08 04:10:26;;;;;;;10.85;2.45;;;;;;;3.13;73.55;98783.56;4972704;28;20170;-44
2022/04/08 04:12:52;;;;;;;12.15;2.25;;;;;;;3.24;73.73;98776.91;4971362;28;20288;-42
2022/04/08 04:15:18;;;;;;;10.50;1.90;;;;;;;3.15;73.60;98779.06;4971995;28;20176;-43
2022/04/08 04:17:43;;;;;;;13.23;2.40;;;;;;;3.20;73.49;98782.41;4972554;28;20280;-43
2022/04/08 04:20:09;;;;;;;9.65;2.45;;;;;;;3.22;72.90;98794.66;4971561;28;20217;-42
2022/04/08 04:22:34;;;;;;;12.70;2.53;;;;;;;3.24;72.84;98795.44;4972129;28;20173;-43
2022/04/08 04:25:00;;;;;;;11.15;2.47;;;;;;;3.24;72.98;98784.84;4971894;28;20227;-44
2022/04/08 04:27:25;;;;;;;16.50;2.63;;;;;;;3.21;72.66;98800.00;4972084;28;20228;-43
2022/04/08 04:29:50;;;;;;;12.73;2.25;;;;;;;3.25;73.16;98804.25;4972164;28;20240;-43
2022/04/08 04:32:18;;;;;;;17.48;2.50;;;;;;;3.25;73.13;98805.09;4971698;28;20174;-42
2022/04/08 04:34:43;;;;;;;15.38;2.45;;;;;;;3.21;73.47;98806.13;4971595;28;20180;-44
2022/04/08 04:37:09;;;;;;;11.38;2.60;;;;;;;3.29;73.00;98806.69;4971911;28;20210;-43
2022/04/08 04:39:35;;;;;;;9.20;2.25;;;;;;;3.24;73.44;98806.03;4971484;28;20177;-43
2022/04/08 04:42:00;;;;;;;14.90;2.72;;;;;;;3.28;73.05;98827.94;4971801;28;20676;-43
2022/04/08 04:44:27;;;;;;;14.40;3.35;;;;;;;3.24;73.59;98826.34;4971288;28;20561;-43
2022/04/08 04:46:53;;;;;;;12.48;2.20;;;;;;;3.24;73.61;98827.19;4971508;28;20205;-43
2022/04/08 04:49:19;;;;;;;12.48;2.65;;;;;;;3.20;74.08;98830.88;4971398;28;20193;-42
2022/04/08 04:51:44;;;;;;;13.30;2.78;;;;;;;3.17;74.85;98836.31;4971210;28;20749;-45
2022/04/08 04:54:10;;;;;;;17.85;2.53;;;;;;;3.15;74.55;98834.63;4971702;28;20631;-44
2022/04/08 04:56:35;;;;;;;12.70;2.40;;;;;;;3.21;74.79;98829.94;4970970;28;20205;-43
2022/04/08 04:59:00;;;;;;;11.73;2.13;;;;;;;3.23;74.89;98833.41;4971436;28;20670;-42
2022/04/08 05:01:26;;;;;;;14.63;2.63;;;;;;;3.29;75.46;98846.38;4971540;28;20178;-42
2022/04/08 05:03:51;;;;;;;15.73;2.88;;;;;;;3.28;76.12;98838.53;4971090;28;20577;-43
2022/04/08 05:06:17;;;;;;;18.58;2.80;;;;;;;3.29;76.29;98848.19;4970921;28;20545;-44
2022/04/08 05:08:42;;;;;;;14.18;2.70;;;;;;;3.44;76.24;98847.56;4971093;28;20589;-41
2022/04/08 05:11:07;;;;;;;10.23;2.38;;;;;;;3.45;76.33;98843.13;4971260;28;20181;-41
2022/04/08 05:13:33;;;;;;;18.13;3.50;;;;;;;3.39;76.48;98860.13;4971304;28;20178;-42
2022/04/08 05:15:58;;;;;;;11.13;2.17;;;;;;;3.35;76.88;98845.28;4970607;28;20576;-42
2022/04/08 05:18:24;;;;;;;12.73;2.22;;;;;;;3.51;76.92;98848.16;4953348;28;20190;-44
2022/04/08 05:20:52;;;;;;;17.05;3.00;;;;;;;3.38;76.83;98868.13;4969825;28;20196;-41
2022/04/08 05:23:18;;;;;;;14.30;2.47;;;;;;;3.46;76.63;98863.38;4971239;28;20189;-41
2022/04/08 05:25:43;;;;;;;11.15;2.60;;;;;;;3.35;77.10;98881.50;4971283;28;20181;-43
2022/04/08 05:28:11;;;;;;;11.10;2.35;;;;;;;3.30;77.43;98882.53;4970935;28;20555;-42
2022/04/08 05:30:37;;;;;;;17.13;2.63;;;;;;;3.26;77.64;98880.94;4971228;28;20189;-42
2022/04/08 05:33:02;;;;;;;11.38;2.45;;;;;;;3.33;77.49;98878.03;4971131;28;20170;-43
2022/04/08 05:35:28;;;;;;;14.48;2.75;;;;;;;3.44;77.14;98881.13;4969236;28;20186;-41
2022/04/08 05:37:53;;;;;;;17.85;3.08;;;;;;;3.40;77.34;98880.38;4971367;28;20193;-42
2022/04/08 05:40:21;;;;;;;18.10;2.45;;;;;;;3.46;77.48;98881.91;4970392;28;20173;-44
2022/04/08 05:42:50;;;;;;;11.95;2.35;;;;;;;3.45;77.36;98890.78;4970819;28;20526;-43
2022/04/08 05:45:18;;;;;;;14.35;2.72;;;;;;;3.63;76.85;98889.16;4970678;28;20592;-44
2022/04/08 05:47:47;;;;;;;11.38;2.15;;;;;;;3.68;76.81;98889.84;4970668;28;20277;-43
2022/04/08 05:50:13;;;;;;;13.55;2.33;;;;;;;4.07;75.67;98900.56;4971051;28;20729;-42
2022/04/08 05:52:40;;;;;;;15.15;2.38;;;;;;;4.20;75.30;98908.84;4970764;28;20323;-43
2022/04/08 05:55:06;;;;;;;13.88;2.45;;;;;;;4.16;74.65;98901.94;4970751;28;20241;-43
2022/04/08 05:57:41;;;;;;;12.57;2.17;;;;;;;4.40;73.77;98902.66;4971117;28;20292;-44
2022/04/08 06:00:10;;;;;;;11.52;2.70;;;;;;;4.30;73.93;98904.84;4970616;28;20182;-42
2022/04/08 06:02:38;;;;;;;12.30;2.20;;;;;;;4.50;73.63;98908.41;4971667;28;20178;-43
2022/04/08 06:05:05;;;;;;;11.68;2.28;;;;;;;4.91;72.53;98909.19;4974383;28;20304;-43
2022/04/08 06:07:30;;;;;;;11.35;2.33;;;;;;;5.01;71.30;98907.00;4974394;28;20652;-44
2022/04/08 06:09:59;;;;;;;14.25;3.25;;;;;;;5.26;71.11;98911.16;4974182;28;20182;-44
2022/04/08 06:12:25;;;;;;;14.63;3.05;;;;;;;5.33;70.10;98907.25;4973398;28;20752;-43
2022/04/08 06:14:50;;;;;;;18.05;2.58;;;;;;;5.50;69.43;98909.97;4974245;28;20266;-42
2022/04/08 06:17:16;;;;;;;16.73;3.03;;;;;;;5.71;69.15;98916.03;4972948;28;20205;-42
2022/04/08 06:19:45;;;;;;;11.88;2.75;;;;;;;5.72;68.45;98914.22;4974294;28;20399;-44
2022/04/08 06:22:11;;;;;;;18.02;3.22;;;;;;;5.99;67.41;98912.03;4975289;28;20198;-42
2022/04/08 06:24:36;;;;;;;12.23;2.38;;;;;;;5.63;67.15;98923.50;4975309;28;20197;-44
2022/04/08 06:27:02;;;;;;;10.27;2.28;;;;;;;6.04;67.11;98925.09;4975341;28;20206;-44
2022/04/08 06:29:27;;;;;;;15.98;2.83;;;;;;;5.97;66.28;98916.59;4975005;28;20653;-46
2022/04/08 06:31:52;;;;;;;13.98;2.08;;;;;;;5.49;67.47;98918.03;4975287;28;20509;-44
2022/04/08 06:34:18;;;;;;;15.57;2.35;;;;;;;5.57;68.18;98900.78;4975374;28;20535;-42
2022/04/08 06:36:43;;;;;;;13.57;3.15;;;;;;;5.97;66.53;98913.94;4974673;28;20190;-43
2022/04/08 06:39:09;;;;;;;20.65;3.22;;;;;;;6.39;66.23;98912.66;4975166;28;20181;-41
2022/04/08 06:41:34;;;;;;;11.18;2.60;;;;;;;6.40;65.40;98909.91;4973396;28;20177;-44
2022/04/08 06:44:02;;;;;;;14.27;3.10;;;;;;;6.69;64.86;98915.53;4974731;28;20519;-43
2022/04/08 06:46:27;;;;;;;15.55;2.75;;;;;;;6.93;63.35;98909.81;4975043;28;20201;-44
2022/04/08 06:48:54;;;;;;;10.82;3.33;;;;;;;6.70;62.75;98903.91;4974758;28;20260;-43
2022/04/08 06:51:19;;;;;;;10.73;2.60;;;;;;;6.87;63.00;98923.47;4974926;28;20170;-43
2022/04/08 06:53:45;;;;;;;8.10;2.05;;;;;;;6.75;63.25;98927.63;4972843;28;20241;-41
2022/04/08 06:56:10;;;;;;;12.43;2.25;;;;;;;6.91;62.00;98931.19;4988381;28;20202;-44
2022/04/08 06:58:39;;;;;;;11.65;2.55;;;;;;;6.92;61.70;98919.59;4973696;28;20162;-44
2022/04/08 07:01:06;;;;;;;14.48;2.88;;;;;;;6.91;62.16;98920.56;4973547;28;20178;-45
2022/04/08 07:03:31;;;;;;;10.77;2.83;;;;;;;6.90;61.81;98925.94;4973289;28;20241;-41
2022/04/08 07:05:57;;;;;;;17.10;2.42;;;;;;;6.97;62.45;98932.66;4973144;28;20201;-41
2022/04/08 07:08:22;;;;;;;9.20;2.40;;;;;;;7.12;61.40;98936.28;4973765;28;20173;-44
2022/04/08 07:10:48;;;;;;;9.32;2.33;;;;;;;7.28;60.39;98921.22;4974475;28;20202;-43
2022/04/08 07:13:13;;;;;;;15.88;2.55;;;;;;;6.87;59.92;98939.44;4974117;28;20173;-43
2022/04/08 07:15:38;;;;;;;10.73;2.42;;;;;;;7.06;59.51;98936.63;4974382;28;20173;-45
2022/04/08 07:18:04;;;;;;;14.05;2.28;;;;;;;7.30;59.24;98929.09;4972722;28;20186;-43
2022/04/08 07:20:30;;;;;;;12.48;2.08;;;;;;;7.61;58.62;98920.25;4974201;28;20285;-44
2022/04/08 07:23:01;;;;;;;11.05;2.97;;;;;;;7.67;58.06;98927.03;4974166;28;20170;-44
2022/04/08 07:25:27;;;;;;;7.90;1.70;;;;;;;7.62;57.52;98924.63;4973850;28;20261;-42
2022/04/08 07:27:55;;;;;;;15.27;2.67;;;;;;;8.04;58.07;98933.78;4973982;28;20666;-43
2022/04/08 07:30:22;;;;;;;10.35;2.00;;;;;;;7.79;58.49;98929.88;4973871;28;20162;-42
2022/04/08 07:32:52;;;;;;;8.38;2.10;;;;;;;7.70;58.17;98937.53;4973680;28;20199;-44
2022/04/08 07:35:18;;;;;;;11.80;2.80;;;;;;;8.08;58.37;98943.31;4972724;28;20253;-43
2022/04/08 07:37:43;;;;;;;12.65;2.30;;;;;;;7.54;58.12;98951.72;4973577;28;20190;-43
2022/04/08 07:40:11;;;;;;;10.60;2.30;;;;;;;7.46;58.15;98942.44;4972422;28;20177;-42
2022/04/08 07:42:38;;;;;;;11.77;2.20;;;;;;;7.96;58.07;98950.22;4973909;28;20186;-43
2022/04/08 07:45:04;;;;;;;12.68;2.45;;;;;;;7.71;57.40;98964.09;4973573;28;20198;-43
2022/04/08 07:47:30;;;;;;;8.75;1.77;;;;;;;8.06;56.97;98950.53;4973287;28;20217;-43
2022/04/08 07:50:00;;;;;;;13.15;2.00;;;;;;;8.10;56.32;98961.91;4976142;28;20221;-42
2022/04/08 07:52:27;;;;;;;11.27;1.88;;;;;;;8.30;56.06;98958.06;4972668;28;20174;-45
2022/04/08 07:54:53;;;;;;;8.57;1.77;;;;;;;8.16;55.11;98961.56;4970805;28;20174;-42
2022/04/08 07:57:18;;;;;;;14.05;2.60;;;;;;;7.48;56.64;98980.50;4966852;28;20630;-44
2022/04/08 07:59:44;;;;;;;10.50;2.10;;;;;;;7.72;57.53;98968.50;4972535;28;20179;-41
2022/04/08 08:02:10;;;;;;;12.20;2.28;;;;;;;7.88;57.33;98980.94;4971718;28;20654;-41
2022/04/08 08:04:38;;;;;;;7.28;1.80;;;;;;;7.63;56.86;98966.31;4971248;28;20210;-43
2022/04/08 08:07:04;;;;;;;9.73;1.90;;;;;;;8.07;56.88;98957.63;4972016;28;20231;-42
2022/04/08 08:09:29;;;;;;;13.57;2.22;;;;;;;8.13;56.70;98972.38;4972898;28;20185;-42
2022/04/08 08:11:55;;;;;;;11.35;1.90;;;;;;;7.83;55.71;98975.88;4973068;28;20170;-44
2022/04/08 08:14:20;;;;;;;11.13;1.75;;;;;;;8.11;55.07;98968.94;4973257;28;20632;-42
2022/04/08 08:16:46;;;;;;;7.28;1.70;;;;;;;8.06;54.85;98969.22;4973179;28;20241;-43
2022/04/08 08:19:11;;;;;;;13.18;1.95;;;;;;;8.21;54.72;98979.00;4972924;28;20645;-43
2022/04/08 08:21:37;;;;;;;12.18;1.92;;;;;;;8.70;55.06;98971.72;4972246;28;20186;-43
2022/04/08 08:24:03;;;;;;;7.70;2.20;;;;;;;7.72;55.79;98979.16;4973364;28;20195;-43
2022/04/08 08:26:29;;;;;;;9.63;1.90;;;;;;;8.48;55.09;98967.66;4971786;28;20194;-44
2022/04/08 08:28:55;;;;;;;9.00;1.90;;;;;;;7.83;56.91;98997.22;4972263;28;20241;-43
2022/04/08 08:31:22;;;;;;;8.52;2.05;;;;;;;8.15;57.55;98984.69;4972669;28;20158;-46
2022/04/08 08:33:47;;;;;;;7.05;1.77;;;;;;;7.99;57.43;98987.38;4972894;28;20297;-42
2022/04/08 08:36:13;;;;;;;8.52;1.92;;;;;;;7.77;56.88;98998.41;4972532;28;20247;-43
2022/04/08 08:38:38;;;;;;;11.73;2.33;;;;;;;7.63;56.05;99009.84;4971378;28;20166;-44
2022/04/08 08:41:06;;;;;;;8.65;1.83;;;;;;;8.42;53.78;98995.59;4972911;28;20269;-43
2022/04/08 08:43:32;;;;;;;9.50;1.98;;;;;;;8.12;54.06;99008.03;4972233;28;20800;-44
2022/04/08 08:46:01;;;;;;;9.80;2.20;;;;;;;8.36;53.96;98998.59;4971945;28;20272;-42
2022/04/08 08:48:30;;;;;;;9.63;1.70;;;;;;;8.03;54.37;99004.94;4971567;28;20534;-46
2022/04/08 08:51:00;;;;;;;9.35;2.10;;;;;;;8.04;53.04;99019.97;4971425;28;20643;-45
2022/04/08 08:53:29;;;;;;;4.55;1.60;;;;;;;7.21;53.36;99010.38;4971174;28;20182;-43
2022/04/08 08:55:54;;;;;;;9.82;1.88;;;;;;;7.71;52.93;99003.22;4971567;28;20621;-43
2022/04/08 08:58:20;;;;;;;9.18;1.95;;;;;;;7.39;54.10;99006.72;4971936;28;20193;-46
2022/04/08 09:00:45;;;;;;;7.35;1.80;;;;;;;8.01;54.13;99019.31;4971866;28;20616;-46
2022/04/08 09:03:11;;;;;;;10.27;1.80;;;;;;;8.55;53.53;99002.84;4970435;28;20190;-45
2022/04/08 09:05:44;;;;;;;10.55;1.90;;;;;;;8.22;54.44;98977.19;4983330;28;20193;-43
2022/04/08 09:08:11;;;;;;;9.07;1.95;;;;;;;8.80;54.72;99011.13;4971734;28;20597;-48
2022/04/08 09:10:39;;;;;;;11.27;2.08;;;;;;;8.60;53.66;98993.66;4971624;28;20190;-44
2022/04/08 09:13:10;;;;;;;8.07;2.20;;;;;;;8.01;53.88;99019.31;4965293;28;20252;-45
2022/04/08 09:15:39;;;;;;;9.95;1.92;;;;;;;8.02;55.01;99005.88;4984116;28;20296;-46
2022/04/08 09:18:14;;;;;;;8.98;1.80;;;;;;;7.57;54.60;99010.19;4970292;28;20189;-46
2022/04/08 09:20:44;;;;;;;10.73;1.73;;;;;;;7.57;53.96;99019.97;4950402;28;20505;-47
2022/04/08 09:23:11;;;;;;;7.40;1.90;;;;;;;7.75;52.74;99010.09;4952196;28;20206;-42
2022/04/08 09:25:37;;;;;;;8.05;1.92;;;;;;;7.45;53.01;99023.31;4952100;28;20166;-46
2022/04/08 09:28:11;;;;;;;11.85;2.30;;;;;;;7.22;54.28;99018.28;4943312;28;20213;-43
2022/04/08 09:30:37;;;;;;;5.13;1.52;;;;;;;7.00;55.18;99026.56;4956301;28;20201;-48
2022/04/08 09:33:18;;;;;;;11.48;2.17;;;;;;;7.96;53.85;99005.34;4968691;28;20585;-46
2022/04/08 09:35:44;;;;;;;6.32;1.58;;;;;;;8.02;53.84;99018.34;4962282;28;20185;-42
2022/04/08 09:38:10;;;;;;;10.23;1.70;;;;;;;8.11;52.17;99011.63;4969546;28;20560;-44
2022/04/08 09:40:40;;;;;;;10.60;1.60;;;;;;;8.05;53.13;99020.84;4971116;28;20170;-45
2022/04/08 09:43:06;;;;;;;6.78;2.00;;;;;;;7.84;53.13;99023.75;4971327;28;20166;-43
2022/04/08 09:45:33;;;;;;;11.13;1.88;;;;;;;7.45;53.01;99034.81;4971088;28;20174;-44
2022/04/08 09:47:59;;;;;;;10.40;1.80;;;;;;;7.29;54.08;99029.47;4971321;28;20252;-42
2022/04/08 09:50:25;;;;;;;5.75;1.92;;;;;;;7.56;52.81;99032.41;4969853;28;20218;-46
2022/04/08 09:52:51;;;;;;;10.30;1.80;;;;;;;7.99;52.33;99010.53;4971328;28;20213;-42
2022/04/08 09:55:17;;;;;;;6.18;1.58;;;;;;;7.80;52.92;99019.53;4971217;28;20210;-43
2022/04/08 09:57:46;;;;;;;9.77;1.90;;;;;;;7.69;54.14;99013.94;4970988;28;20197;-42
2022/04/08 10:00:12;;;;;;;10.05;1.75;;;;;;;7.32;55.09;99026.63;4971210;28;20560;-46
2022/04/08 10:02:45;;;;;;;11.27;1.73;;;;;;;7.16;54.86;99025.75;4970892;28;20274;-44
2022/04/08 10:05:10;;;;;;;10.75;2.08;;;;;;;6.99;56.13;99051.44;4969641;28;20582;-46
2022/04/08 10:07:38;;;;;;;11.02;1.50;;;;;;;7.08;56.55;99043.91;4970703;28;20198;-44
2022/04/08 10:10:37;;;;;;;11.73;2.13;;;;;;;7.62;55.37;99031.25;4969844;28;20182;-43
2022/04/08 10:13:21;;;;;;;6.53;1.92;;;;;;;7.55;54.65;99030.72;4970995;28;20271;-45
2022/04/08 10:16:04;;;;;;;11.70;1.60;;;;;;;7.37;56.05;99037.06;4970739;28;20524;-42
2022/04/08 10:18:37;;;;;;;11.05;2.90;;;;;;;7.53;55.71;99032.59;4970675;28;20256;-45
2022/04/08 10:21:03;;;;;;;4.28;1.50;;;;;;;8.07;55.32;99031.41;4971084;28;20189;-43
2022/04/08 10:23:52;;;;;;;7.82;1.60;;;;;;;8.39;53.90;99018.88;4971073;28;20202;-42
2022/04/08 10:26:26;;;;;;;9.85;1.77;;;;;;;8.87;52.55;99008.94;4970695;28;20209;-43
2022/04/08 10:28:53;;;;;;;8.25;1.60;;;;;;;8.75;50.77;98999.88;4970801;28;20166;-44
2022/04/08 10:31:24;;;;;;;7.78;1.52;;;;;;;8.98;51.07;99002.97;4970723;28;20265;-44
2022/04/08 10:33:54;;;;;;;10.30;1.73;;;;;;;8.91;48.54;99010.50;4971005;28;20665;-43
2022/04/08 10:36:38;;;;;;;7.05;1.60;;;;;;;8.85;49.67;99003.72;4970632;28;20198;-43
2022/04/08 10:39:22;;;;;;;8.35;1.70;;;;;;;8.91;49.83;99013.16;4970920;28;20167;-44
2022/04/08 10:42:03;;;;;;;8.38;1.60;;;;;;;8.58;49.61;99011.56;4970709;28;20468;-43
2022/04/08 10:44:41;;;;;;;9.40;1.60;;;;;;;8.70;50.02;99022.44;4970783;28;20272;-43
2022/04/08 10:47:10;;;;;;;5.97;1.30;;;;;;;8.18;50.55;99013.88;4970480;28;20289;-47
2022/04/08 10:49:51;;;;;;;7.43;1.63;;;;;;;7.94;50.38;99009.94;4972700;28;20306;-45
2022/04/08 10:52:21;;;;;;;7.88;1.52;;;;;;;8.40;51.80;99007.28;4989116;28;20237;-47
2022/04/08 10:54:48;;;;;;;5.38;1.50;;;;;;;8.98;50.84;99008.31;4974303;28;20210;-43
2022/04/08 10:57:13;;;;;;;9.23;2.08;;;;;;;9.05;50.90;99004.28;4974007;28;20702;-46
2022/04/08 10:59:39;;;;;;;9.50;1.58;;;;;;;9.30;49.80;98995.63;4974026;28;20162;-45
2022/04/08 11:02:06;;;;;;;10.30;1.60;;;;;;;8.97;51.22;99027.97;4974138;28;20166;-43
2022/04/08 11:04:32;;;;;;;6.47;1.75;;;;;;;8.84;52.00;99003.81;4973951;28;20206;-47
2022/04/08 11:07:06;;;;;;;6.07;1.20;;;;;;;8.40;51.32;98996.59;4972523;28;20216;-45
2022/04/08 11:09:32;;;;;;;5.10;1.55;;;;;;;9.08;50.06;98999.63;4974326;28;20583;-42
2022/04/08 11:11:58;;;;;;;6.28;1.50;;;;;;;9.20;50.49;99023.88;4973972;28;20708;-44
2022/04/08 11:14:26;;;;;;;6.07;1.10;;;;;;;8.90;50.49;99024.81;4974298;28;20209;-44
2022/04/08 11:16:51;;;;;;;9.00;1.73;;;;;;;9.53;51.22;99020.06;4973251;28;20681;-43
2022/04/08 11:19:20;;;;;;;8.43;1.48;;;;;;;9.63;51.45;99008.69;4973805;28;20277;-42
2022/04/08 11:21:47;;;;;;;7.95;1.50;;;;;;;9.42;51.27;99016.25;4973797;28;20185;-44
2022/04/08 11:24:16;;;;;;;5.55;1.30;;;;;;;9.19;50.14;99022.16;4973980;28;20229;-41
2022/04/08 11:26:53;;;;;;;4.63;1.48;;;;;;;9.18;49.73;99031.13;4973558;28;20230;-44
2022/04/08 11:29:27;;;;;;;7.03;1.38;;;;;;;9.07;50.54;99029.09;4973503;28;20173;-48
2022/04/08 11:32:05;;;;;;;9.55;1.92;;;;;;;8.62;50.94;99042.47;4973812;28;20166;-48
2022/04/08 11:34:30;;;;;;;3.63;1.30;;;;;;;8.76;51.43;99035.44;4973548;28;20166;-47
2022/04/08 11:36:57;;;;;;;7.15;1.63;;;;;;;8.84;49.40;99043.88;4973214;28;20586;-44